Time,TemperatureF,DewpointF,PressureIn,WindDirection,WindDirectionDegrees,WindSpeedMPH,WindSpeedGustMPH,Humidity,HourlyPrecipIn,Conditions,Clouds,dailyrainin,SoftwareType,DateUTC
2013-03-17 00:01:00,32.6,20.0,29.74,WSW,254,3.0,12.0,60,0.00,,,0.00,weatherlink.com 1.10,2013-03-17 06:01:00,
2013-03-17 00:16:00,32.6,20.0,29.73,SW,231,5.0,8.0,61,0.00,,,0.00,weatherlink.com 1.10,2013-03-17 06:16:00,
2013-03-17 00:31:00,32.8,20.0,29.72,WSW,243,7.0,10.0,59,0.00,,,0.00,weatherlink.com 1.10,2013-03-17 06:31:00,
2013-03-17 00:46:00,32.6,20.0,29.72,SW,225,2.0,9.0,59,0.00,,,0.00,weatherlink.com 1.10,2013-03-17 06:46:00,
2013-03-17 02:01:00,31.0,19.0,29.69,SSE,157,0.0,1.0,61,0.00,,,0.00,weatherlink.com 1.10,2013-03-17 08:01:00,
2013-03-17 02:16:00,30.5,19.0,29.69,SSE,159,0.0,2.0,62,0.00,,,0.00,weatherlink.com 1.10,2013-03-17 08:16:00,
2013-03-17 02:31:00,30.3,19.0,29.69,SE,144,0.0,5.0,62,0.00,,,0.00,weatherlink.com 1.10,2013-03-17 08:31:00,
2013-03-17 02:46:00,30.2,18.0,29.69,WSW,258,0.0,2.0,62,0.00,,,0.00,weatherlink.com 1.10,2013-03-17 08:46:00,
2013-03-17 03:01:00,30.3,18.0,29.69,SSW,209,0.0,5.0,61,0.00,,,0.00,weatherlink.com 1.10,2013-03-17 09:01:00,
2013-03-17 03:16:00,30.4,18.0,29.68,SSW,206,0.0,5.0,60,0.00,,,0.00,weatherlink.com 1.10,2013-03-17 09:16:00,
2013-03-17 03:31:00,30.1,18.0,29.67,SW,223,2.0,4.0,60,0.00,,,0.00,weatherlink.com 1.10,2013-03-17 09:31:00,
2013-03-17 03:46:00,29.6,18.0,29.67,SE,136,0.0,3.0,61,0.00,,,0.00,weatherlink.com 1.10,2013-03-17 09:46:00,
2013-03-17 04:01:00,29.2,17.0,29.66,SE,130,0.0,3.0,61,0.00,,,0.00,weatherlink.com 1.10,2013-03-17 10:01:00,
2013-03-17 04:16:00,28.9,17.0,29.65,ESE,113,1.0,3.0,61,0.00,,,0.00,weatherlink.com 1.10,2013-03-17 10:16:00,
2013-03-17 04:31:00,29.1,17.0,29.64,ESE,118,0.0,4.0,60,0.00,,,0.00,weatherlink.com 1.10,2013-03-17 10:31:00,
2013-03-17 05:01:00,29.2,16.0,29.64,South,190,0.0,2.0,57,0.00,,,0.00,weatherlink.com 1.10,2013-03-17 11:01:00,
2013-03-17 05:16:00,29.4,15.0,29.63,WSW,240,0.0,5.0,56,0.00,,,0.00,weatherlink.com 1.10,2013-03-17 11:16:00,
2013-03-17 05:46:00,29.4,15.0,29.62,SW,219,2.0,5.0,55,0.00,,,0.00,weatherlink.com 1.10,2013-03-17 11:46:00,
2013-03-17 06:01:00,29.6,15.0,29.61,SSW,194,0.0,5.0,55,0.00,,,0.00,weatherlink.com 1.10,2013-03-17 12:01:00,
2013-03-17 06:17:00,29.3,14.0,29.62,SSW,206,0.0,7.0,52,0.00,,,0.00,weatherlink.com 1.10,2013-03-17 12:17:00,
2013-03-17 06:32:00,29.6,11.0,29.61,SW,221,9.0,12.0,47,0.00,,,0.00,weatherlink.com 1.10,2013-03-17 12:32:00,
2013-03-17 06:47:00,30.0,10.0,29.61,South,177,0.0,8.0,43,0.00,,,0.00,weatherlink.com 1.10,2013-03-17 12:47:00,
2013-03-17 07:02:00,29.9,10.0,29.60,WSW,242,4.0,7.0,43,0.00,,,0.00,weatherlink.com 1.10,2013-03-17 13:02:00,
2013-03-17 07:17:00,30.7,12.0,29.60,WSW,255,6.0,17.0,46,0.00,,,0.00,weatherlink.com 1.10,2013-03-17 13:17:00,
2013-03-17 07:32:00,32.1,12.0,29.60,WSW,237,13.0,21.0,43,0.00,,,0.00,weatherlink.com 1.10,2013-03-17 13:32:00,
2013-03-17 07:47:00,32.6,16.0,29.61,WSW,244,18.0,27.0,50,0.00,,,0.00,weatherlink.com 1.10,2013-03-17 13:47:00,
2013-03-17 08:02:00,32.5,19.0,29.61,WSW,244,16.0,25.0,57,0.00,,,0.00,weatherlink.com 1.10,2013-03-17 14:02:00,
2013-03-17 08:17:00,31.7,21.0,29.61,WSW,248,11.0,29.0,66,0.00,,,0.00,weatherlink.com 1.10,2013-03-17 14:17:00,
2013-03-17 08:32:00,31.6,22.0,29.61,WSW,254,12.0,28.0,69,0.00,,,0.00,weatherlink.com 1.10,2013-03-17 14:32:00,
2013-03-17 08:47:00,30.6,23.0,29.60,WSW,247,10.0,22.0,74,0.00,,,0.00,weatherlink.com 1.10,2013-03-17 14:47:00,
2013-03-17 09:02:00,31.5,24.0,29.60,WSW,257,16.0,19.0,73,0.00,,,0.00,weatherlink.com 1.10,2013-03-17 15:02:00,
2013-03-17 09:17:00,30.2,25.0,29.63,WSW,252,17.0,28.0,81,0.00,,,0.00,weatherlink.com 1.10,2013-03-17 15:17:00,
2013-03-17 09:32:00,28.2,25.0,29.60,WSW,244,18.0,24.0,88,0.00,,,0.00,weatherlink.com 1.10,2013-03-17 15:32:00,
2013-03-17 09:47:00,29.9,26.0,29.58,WSW,247,7.0,21.0,85,0.00,,,0.00,weatherlink.com 1.10,2013-03-17 15:47:00,
2013-03-17 10:02:00,31.8,26.0,29.57,WSW,241,26.0,26.0,78,0.00,,,0.00,weatherlink.com 1.10,2013-03-17 16:02:00,
2013-03-17 10:17:00,31.8,25.0,29.57,WSW,251,9.0,27.0,75,0.00,,,0.00,weatherlink.com 1.10,2013-03-17 16:17:00,
2013-03-17 10:32:00,31.6,24.0,29.57,SW,236,13.0,20.0,73,0.00,,,0.00,weatherlink.com 1.10,2013-03-17 16:32:00,
2013-03-17 10:47:00,32.6,24.0,29.57,WSW,252,14.0,27.0,70,0.00,,,0.00,weatherlink.com 1.10,2013-03-17 16:47:00,
2013-03-17 11:02:00,33.4,23.0,29.56,SW,227,15.0,19.0,67,0.00,,,0.00,weatherlink.com 1.10,2013-03-17 17:02:00,
2013-03-17 11:17:00,33.9,22.0,29.55,WSW,238,12.0,22.0,62,0.00,,,0.00,weatherlink.com 1.10,2013-03-17 17:17:00,
2013-03-17 11:32:00,35.5,20.0,29.53,WSW,238,18.0,34.0,53,0.00,,,0.00,weatherlink.com 1.10,2013-03-17 17:32:00,
2013-03-17 11:47:00,36.2,20.0,29.54,WSW,254,18.0,26.0,52,0.00,,,0.00,weatherlink.com 1.10,2013-03-17 17:47:00,
2013-03-17 12:02:00,36.6,20.0,29.53,SW,215,18.0,28.0,51,0.00,,,0.00,weatherlink.com 1.10,2013-03-17 18:02:00,
2013-03-17 12:17:00,37.2,19.0,29.52,SW,220,11.0,25.0,48,0.00,,,0.00,weatherlink.com 1.10,2013-03-17 18:17:00,
2013-03-17 12:32:00,37.3,17.0,29.52,West,261,9.0,24.0,44,0.00,,,0.00,weatherlink.com 1.10,2013-03-17 18:32:00,
2013-03-17 12:47:00,37.4,14.0,29.51,SW,232,14.0,26.0,39,0.00,,,0.00,weatherlink.com 1.10,2013-03-17 18:47:00,
2013-03-17 13:02:00,37.0,12.0,29.51,WSW,249,14.0,30.0,36,0.00,,,0.00,weatherlink.com 1.10,2013-03-17 19:02:00,
2013-03-17 13:17:00,35.8,15.0,29.51,WSW,250,6.0,31.0,43,0.00,,,0.00,weatherlink.com 1.10,2013-03-17 19:17:00,
2013-03-17 13:47:00,34.7,17.0,29.51,South,186,15.0,35.0,48,0.00,,,0.00,weatherlink.com 1.10,2013-03-17 19:47:00,
2013-03-17 14:02:00,34.7,16.0,29.49,West,259,12.0,32.0,47,0.00,,,0.00,weatherlink.com 1.10,2013-03-17 20:02:00,
2013-03-17 14:17:00,34.7,14.0,29.49,West,272,14.0,36.0,42,0.00,,,0.00,weatherlink.com 1.10,2013-03-17 20:17:00,
2013-03-17 14:33:00,37.3,13.0,29.47,WSW,240,16.0,30.0,37,0.00,,,0.00,weatherlink.com 1.10,2013-03-17 20:33:00,
2013-03-17 14:48:00,36.6,13.0,29.49,WSW,258,5.0,28.0,38,0.00,,,0.00,weatherlink.com 1.10,2013-03-17 20:48:00,
2013-03-17 15:03:00,35.6,15.0,29.49,WSW,249,22.0,32.0,43,0.00,,,0.00,weatherlink.com 1.10,2013-03-17 21:03:00,
2013-03-17 15:18:00,34.4,14.0,29.48,West,270,11.0,26.0,43,0.00,,,0.00,weatherlink.com 1.10,2013-03-17 21:18:00,
2013-03-17 15:33:00,37.9,14.0,29.47,WNW,286,31.0,31.0,37,0.00,,,0.00,weatherlink.com 1.10,2013-03-17 21:33:00,
2013-03-17 15:48:00,36.6,11.0,29.47,West,272,7.0,35.0,34,0.00,,,0.00,weatherlink.com 1.10,2013-03-17 21:48:00,
2013-03-17 16:03:00,34.5,11.0,29.49,West,280,26.0,40.0,38,0.00,,,0.00,weatherlink.com 1.10,2013-03-17 22:03:00,
2013-03-17 16:18:00,33.4,15.0,29.48,West,276,8.0,29.0,48,0.00,,,0.00,weatherlink.com 1.10,2013-03-17 22:18:00,
2013-03-17 16:33:00,33.4,15.0,29.51,West,273,7.0,27.0,47,0.00,,,0.00,weatherlink.com 1.10,2013-03-17 22:33:00,
2013-03-17 16:48:00,29.4,20.0,29.51,West,260,8.0,42.0,68,0.00,,,0.00,weatherlink.com 1.10,2013-03-17 22:48:00,
2013-03-17 17:03:00,30.2,18.0,29.50,WSW,244,26.0,32.0,62,0.00,,,0.00,weatherlink.com 1.10,2013-03-17 23:03:00,
2013-03-17 17:18:00,31.0,18.0,29.51,West,271,12.0,26.0,58,0.00,,,0.00,weatherlink.com 1.10,2013-03-17 23:18:00,
2013-03-17 17:33:00,31.3,17.0,29.53,West,273,10.0,24.0,55,0.00,,,0.00,weatherlink.com 1.10,2013-03-17 23:33:00,
2013-03-17 17:48:00,30.8,16.0,29.54,WSW,252,23.0,25.0,55,0.00,,,0.00,weatherlink.com 1.10,2013-03-17 23:48:00,
2013-03-17 18:03:00,30.6,16.0,29.55,West,265,16.0,29.0,54,0.00,,,0.00,weatherlink.com 1.10,2013-03-18 00:03:00,
2013-03-17 18:18:00,29.8,16.0,29.56,WSW,246,13.0,35.0,57,0.00,,,0.00,weatherlink.com 1.10,2013-03-18 00:18:00,
2013-03-17 18:33:00,28.8,17.0,29.57,WSW,244,15.0,33.0,61,0.00,,,0.00,weatherlink.com 1.10,2013-03-18 00:33:00,
2013-03-17 18:48:00,26.5,20.0,29.58,WSW,245,17.0,27.0,77,0.00,,,0.00,weatherlink.com 1.10,2013-03-18 00:48:00,
2013-03-17 19:03:00,26.0,21.0,29.58,West,273,13.0,17.0,81,0.00,,,0.00,weatherlink.com 1.10,2013-03-18 01:03:00,
2013-03-17 19:18:00,25.6,21.0,29.59,West,264,11.0,19.0,83,0.00,,,0.00,weatherlink.com 1.10,2013-03-18 01:18:00,
2013-03-17 19:33:00,24.6,20.0,29.61,WSW,239,12.0,23.0,84,0.00,,,0.00,weatherlink.com 1.10,2013-03-18 01:33:00,
2013-03-17 19:48:00,24.0,20.0,29.60,WSW,258,12.0,22.0,83,0.00,,,0.00,weatherlink.com 1.10,2013-03-18 01:48:00,
2013-03-17 20:03:00,23.6,19.0,29.60,WSW,247,12.0,23.0,81,0.00,,,0.00,weatherlink.com 1.10,2013-03-18 02:03:00,
2013-03-17 20:18:00,23.4,18.0,29.61,WSW,240,10.0,30.0,79,0.00,,,0.00,weatherlink.com 1.10,2013-03-18 02:18:00,
2013-03-17 20:33:00,22.9,18.0,29.63,West,265,18.0,32.0,80,0.00,,,0.00,weatherlink.com 1.10,2013-03-18 02:33:00,
2013-03-17 20:48:00,22.2,17.0,29.64,WSW,248,23.0,38.0,80,0.00,,,0.00,weatherlink.com 1.10,2013-03-18 02:48:00,
2013-03-17 21:03:00,21.3,17.0,29.64,WSW,256,16.0,39.0,82,0.00,,,0.00,weatherlink.com 1.10,2013-03-18 03:03:00,
2013-03-17 21:18:00,20.6,16.0,29.66,WSW,244,31.0,38.0,83,0.00,,,0.00,weatherlink.com 1.10,2013-03-18 03:18:00,
2013-03-17 21:33:00,20.3,16.0,29.67,WSW,238,11.0,38.0,83,0.00,,,0.00,weatherlink.com 1.10,2013-03-18 03:33:00,
2013-03-17 21:48:00,19.8,16.0,29.69,West,265,21.0,42.0,84,0.00,,,0.00,weatherlink.com 1.10,2013-03-18 03:48:00,
2013-03-17 22:03:00,19.4,15.0,29.68,WSW,257,32.0,40.0,83,0.00,,,0.00,weatherlink.com 1.10,2013-03-18 04:03:00,
2013-03-17 22:18:00,19.1,15.0,29.70,West,261,25.0,37.0,82,0.00,,,0.00,weatherlink.com 1.10,2013-03-18 04:18:00,
2013-03-17 22:33:00,18.9,14.0,29.71,SW,221,27.0,36.0,80,0.00,,,0.00,weatherlink.com 1.10,2013-03-18 04:33:00,
2013-03-17 22:48:00,19.2,13.0,29.73,WSW,245,19.0,34.0,75,0.00,,,0.00,weatherlink.com 1.10,2013-03-18 04:48:00,
2013-03-17 23:03:00,18.9,12.0,29.75,NW,310,25.0,31.0,73,0.00,,,0.00,weatherlink.com 1.10,2013-03-18 05:03:00,
2013-03-17 23:18:00,18.7,11.0,29.75,WSW,242,16.0,31.0,73,0.00,,,0.00,weatherlink.com 1.10,2013-03-18 05:18:00,
2013-03-17 23:33:00,18.7,10.0,29.75,SW,232,22.0,33.0,69,0.00,,,0.00,weatherlink.com 1.10,2013-03-18 05:33:00,
2013-03-17 23:48:00,18.7,9.0,29.75,West,263,21.0,34.0,67,0.00,,,0.00,weatherlink.com 1.10,2013-03-18 05:48:00,